Time;durP1;ratioP1;P1;durP2;ratioP2;P2;SDS_P1;SDS_P2;PMS_P1;PMS_P2;Temp;Humidity;BMP_temperature;BMP_pressure;BME280_temperature;BME280_humidity;BME280_pressure;Samples;Min_cycle;Max_cycle;Signal;HPM_P1;HPM_P2
2021/01/17 00:01:03;;;;;;;14.18;8.65;;;4.40;94.10;;;;;;4830738;29;20532;-70
2021/01/17 00:03:31;;;;;;;12.75;8.05;;;4.40;93.90;;;;;;4841439;29;20081;-71
2021/01/17 00:05:58;;;;;;;12.02;8.23;;;4.40;93.80;;;;;;4828329;29;20137;-70
2021/01/17 00:08:25;;;;;;;12.40;7.60;;;4.40;93.90;;;;;;4827958;29;20045;-70
2021/01/17 00:10:52;;;;;;;13.23;8.27;;;4.40;93.80;;;;;;4846281;29;20053;-71
2021/01/17 00:13:23;;;;;;;14.85;8.55;;;4.50;93.90;;;;;;4834002;29;20161;-71
2021/01/17 00:15:51;;;;;;;13.02;7.50;;;4.40;93.80;;;;;;4835446;29;20056;-70
2021/01/17 00:18:19;;;;;;;12.73;7.65;;;4.50;93.90;;;;;;4834636;29;20042;-71
2021/01/17 00:21:06;;;;;;;14.82;8.25;;;4.30;94.00;;;;;;4831566;29;20127;-70
2021/01/17 00:23:35;;;;;;;13.65;8.73;;;4.40;93.90;;;;;;4836357;29;20046;-71
2021/01/17 00:26:02;;;;;;;12.10;7.97;;;4.40;94.20;;;;;;4840333;29;20148;-70
2021/01/17 00:28:30;;;;;;;13.30;8.05;;;4.40;94.20;;;;;;4832799;29;20056;-72
2021/01/17 00:30:58;;;;;;;12.77;8.15;;;4.50;94.10;;;;;;4819255;29;20136;-71
2021/01/17 00:33:26;;;;;;;13.38;8.13;;;4.60;93.70;;;;;;4832938;29;20049;-70
2021/01/17 00:35:54;;;;;;;14.50;8.63;;;4.50;93.60;;;;;;4837017;29;20557;-70
2021/01/17 00:38:21;;;;;;;14.10;7.80;;;4.50;94.00;;;;;;4831093;29;20458;-70
2021/01/17 00:40:49;;;;;;;11.43;7.15;;;4.40;94.00;;;;;;4846588;29;20118;-70
2021/01/17 00:43:16;;;;;;;12.82;7.93;;;4.50;94.00;;;;;;4832232;29;20054;-71
2021/01/17 00:45:43;;;;;;;13.70;7.45;;;4.40;93.90;;;;;;4833845;29;20042;-71
2021/01/17 00:48:11;;;;;;;11.00;7.18;;;4.30;94.40;;;;;;4832249;29;20065;-70
2021/01/17 00:50:39;;;;;;;11.73;7.40;;;4.30;94.50;;;;;;4835660;29;20078;-70
2021/01/17 00:53:07;;;;;;;12.60;7.43;;;4.30;94.50;;;;;;4831518;29;20061;-71
2021/01/17 00:55:41;;;;;;;10.00;6.40;;;4.30;94.20;;;;;;4831625;29;20061;-71
2021/01/17 00:58:19;;;;;;;13.30;7.30;;;4.30;94.40;;;;;;4833767;29;20446;-70
2021/01/17 01:00:48;;;;;;;12.30;7.45;;;4.30;94.40;;;;;;4851973;29;20114;-70
2021/01/17 01:03:22;;;;;;;11.80;7.65;;;4.20;94.80;;;;;;4835989;29;20050;-70
2021/01/17 01:05:50;;;;;;;12.90;7.72;;;4.10;95.10;;;;;;4832838;29;20110;-70
2021/01/17 01:08:17;;;;;;;13.35;8.07;;;4.00;95.30;;;;;;4833436;29;20046;-70
2021/01/17 01:10:45;;;;;;;11.57;8.13;;;4.10;95.30;;;;;;4830927;29;20516;-71
2021/01/17 01:13:13;;;;;;;12.18;7.90;;;4.00;95.30;;;;;;4836476;29;20647;-70
2021/01/17 01:15:45;;;;;;;10.13;7.50;;;4.00;95.40;;;;;;4854753;29;20042;-72
2021/01/17 01:18:12;;;;;;;12.45;7.32;;;4.00;95.30;;;;;;4835979;29;20060;-71
2021/01/17 01:20:41;;;;;;;13.90;7.55;;;3.90;95.50;;;;;;4847786;29;20446;-71
2021/01/17 01:23:09;;;;;;;11.68;7.35;;;3.90;95.60;;;;;;4833801;29;20045;-71
2021/01/17 01:25:36;;;;;;;10.25;7.60;;;3.90;95.70;;;;;;4831415;29;20052;-70
2021/01/17 01:28:04;;;;;;;11.48;7.13;;;4.00;95.70;;;;;;4849348;29;20234;-71
2021/01/17 01:30:31;;;;;;;11.68;7.40;;;3.90;96.30;;;;;;4846089;29;20397;-72
2021/01/17 01:33:03;;;;;;;13.88;7.50;;;3.80;96.70;;;;;;4849729;29;20057;-71
2021/01/17 01:35:30;;;;;;;11.20;7.50;;;3.70;96.70;;;;;;4833054;29;20627;-71
2021/01/17 01:37:57;;;;;;;12.77;7.18;;;3.80;96.70;;;;;;4843004;29;20153;-72
2021/01/17 01:40:25;;;;;;;12.73;7.88;;;3.90;96.70;;;;;;4832457;29;20048;-70
2021/01/17 01:42:52;;;;;;;10.60;7.10;;;3.90;96.70;;;;;;4823547;29;20491;-72
2021/01/17 01:45:20;;;;;;;12.00;7.55;;;4.00;96.70;;;;;;4842323;29;20520;-72
2021/01/17 01:47:47;;;;;;;12.73;7.43;;;4.10;96.70;;;;;;4830899;29;20463;-71
2021/01/17 01:50:14;;;;;;;11.00;7.18;;;4.10;96.70;;;;;;4831490;29;21775;-71
2021/01/17 01:52:43;;;;;;;10.88;6.88;;;4.20;96.70;;;;;;4834062;29;20489;-70
2021/01/17 01:55:10;;;;;;;18.13;8.15;;;4.30;96.50;;;;;;4829635;29;20521;-71
2021/01/17 01:57:39;;;;;;;11.25;6.95;;;4.40;95.90;;;;;;4832920;29;20049;-72
2021/01/17 02:00:07;;;;;;;11.23;7.43;;;4.40;95.60;;;;;;4831705;29;20563;-71
2021/01/17 02:02:42;;;;;;;14.25;7.63;;;4.40;95.70;;;;;;4832696;29;20044;-71
2021/01/17 02:05:11;;;;;;;14.52;7.32;;;4.30;95.60;;;;;;4829248;29;20157;-71
2021/01/17 02:07:49;;;;;;;10.38;7.22;;;4.40;95.80;;;;;;4834466;29;20046;-71
2021/01/17 02:10:17;;;;;;;11.10;6.82;;;4.50;95.70;;;;;;4843080;29;20046;-71
2021/01/17 02:12:52;;;;;;;11.75;6.93;;;4.50;95.30;;;;;;4834645;29;20049;-75
2021/01/17 02:15:26;;;;;;;10.90;5.95;;;4.40;95.20;;;;;;4792585;29;20074;-75
2021/01/17 02:17:54;;;;;;;10.23;6.75;;;4.30;95.00;;;;;;4813826;29;20108;-75
2021/01/17 02:20:24;;;;;;;10.60;6.68;;;4.30;94.90;;;;;;4792930;29;20126;-76
2021/01/17 02:23:04;;;;;;;10.48;5.85;;;4.20;95.30;;;;;;4795703;29;20946;-76
2021/01/17 02:25:35;;;;;;;7.78;5.72;;;4.40;95.10;;;;;;4794437;29;20418;-75
2021/01/17 02:28:05;;;;;;;11.55;6.10;;;4.50;94.70;;;;;;4796540;29;20402;-76
2021/01/17 02:30:36;;;;;;;11.00;6.60;;;4.50;94.60;;;;;;4797410;29;20475;-76
2021/01/17 02:33:08;;;;;;;9.52;5.82;;;4.40;94.70;;;;;;4794147;29;20047;-76
2021/01/17 02:35:38;;;;;;;8.95;6.13;;;4.40;95.00;;;;;;4796450;29;20043;-76
2021/01/17 02:38:14;;;;;;;10.68;6.55;;;4.20;95.20;;;;;;4777167;29;20403;-76
2021/01/17 02:40:53;;;;;;;9.68;6.35;;;4.30;95.70;;;;;;4779998;29;20127;-76
2021/01/17 02:43:22;;;;;;;10.93;6.57;;;4.40;95.50;;;;;;4793619;29;20049;-76
2021/01/17 02:45:49;;;;;;;9.95;6.93;;;4.30;95.10;;;;;;4795034;29;20042;-76
2021/01/17 02:48:17;;;;;;;11.65;7.50;;;4.20;95.70;;;;;;4790118;29;20510;-76
2021/01/17 02:50:44;;;;;;;11.25;7.07;;;4.20;95.70;;;;;;4798257;29;20595;-76
2021/01/17 02:53:18;;;;;;;8.77;6.18;;;4.30;95.60;;;;;;4793923;29;20043;-76
2021/01/17 02:55:50;;;;;;;10.30;6.53;;;4.40;95.40;;;;;;4797853;29;20049;-76
2021/01/17 02:58:19;;;;;;;10.45;7.05;;;4.40;95.40;;;;;;4789319;29;20069;-76
2021/01/17 03:00:49;;;;;;;11.88;7.40;;;4.30;95.50;;;;;;4793687;29;20053;-76
2021/01/17 03:03:19;;;;;;;11.55;7.35;;;4.40;95.10;;;;;;4796155;29;20053;-76
2021/01/17 03:05:48;;;;;;;11.10;7.10;;;4.40;95.30;;;;;;4799841;29;20111;-76
2021/01/17 03:08:16;;;;;;;10.63;7.13;;;4.30;95.40;;;;;;4785127;29;20042;-76
2021/01/17 03:10:43;;;;;;;10.38;6.43;;;4.30;95.70;;;;;;4796919;29;20057;-75
2021/01/17 03:13:12;;;;;;;11.32;7.05;;;4.60;95.30;;;;;;4801209;29;20395;-75
2021/01/17 03:15:41;;;;;;;13.23;7.68;;;4.40;95.20;;;;;;4828504;29;20517;-75
2021/01/17 03:18:09;;;;;;;12.05;7.93;;;4.40;95.30;;;;;;4831794;29;20130;-75
2021/01/17 03:20:36;;;;;;;13.00;7.25;;;4.30;95.50;;;;;;4829276;29;20045;-76
2021/01/17 03:23:03;;;;;;;12.73;7.70;;;4.20;95.90;;;;;;4843448;29;20053;-75
2021/01/17 03:25:31;;;;;;;11.52;7.35;;;4.10;96.10;;;;;;4829375;29;20454;-75
2021/01/17 03:27:58;;;;;;;10.85;6.82;;;4.10;96.10;;;;;;4828097;29;20069;-76
2021/01/17 03:30:26;;;;;;;10.05;7.03;;;4.10;96.70;;;;;;4831829;29;20049;-76
2021/01/17 03:32:53;;;;;;;10.25;6.78;;;4.10;96.70;;;;;;4832571;29;20166;-76
2021/01/17 03:35:20;;;;;;;13.18;7.03;;;4.10;96.70;;;;;;4830570;29;20573;-76
2021/01/17 03:37:47;;;;;;;10.10;6.38;;;4.10;96.70;;;;;;4844381;29;20050;-75
2021/01/17 03:40:14;;;;;;;9.68;6.35;;;4.10;96.70;;;;;;4828341;29;20160;-76
2021/01/17 03:42:41;;;;;;;11.18;6.57;;;4.10;96.70;;;;;;4834364;29;20050;-76
2021/01/17 03:45:10;;;;;;;10.25;6.40;;;4.10;96.70;;;;;;4836667;29;20125;-76
2021/01/17 03:47:38;;;;;;;9.10;6.25;;;4.10;96.70;;;;;;4826758;29;20053;-76
2021/01/17 03:50:06;;;;;;;9.23;6.57;;;4.10;96.70;;;;;;4828601;29;20145;-76
2021/01/17 03:52:33;;;;;;;10.73;6.43;;;4.20;96.70;;;;;;4838805;29;20129;-76
2021/01/17 03:55:01;;;;;;;13.40;7.43;;;4.20;96.70;;;;;;4829017;29;20488;-76
2021/01/17 03:57:28;;;;;;;11.63;7.38;;;4.20;96.70;;;;;;4829963;29;20472;-76
2021/01/17 03:59:55;;;;;;;13.07;8.90;;;4.20;96.70;;;;;;4831746;29;20049;-76
2021/01/17 04:02:22;;;;;;;12.73;7.82;;;4.50;96.70;;;;;;4832681;29;20046;-76
2021/01/17 04:04:50;;;;;;;12.32;7.60;;;4.50;96.70;;;;;;4830834;29;20038;-76
2021/01/17 04:07:17;;;;;;;12.68;8.05;;;4.40;96.70;;;;;;4831519;29;20049;-76
2021/01/17 04:09:44;;;;;;;12.50;7.78;;;4.50;96.70;;;;;;4829754;29;20466;-76
2021/01/17 04:12:11;;;;;;;10.68;7.45;;;4.40;96.70;;;;;;4830998;29;20042;-76
2021/01/17 04:14:39;;;;;;;9.27;6.43;;;4.40;96.70;;;;;;4830680;29;20106;-77
2021/01/17 04:17:06;;;;;;;9.85;6.22;;;4.50;96.60;;;;;;4834906;29;20102;-75
2021/01/17 04:19:33;;;;;;;11.63;6.28;;;4.50;96.30;;;;;;4816657;29;20050;-76
2021/01/17 04:22:01;;;;;;;10.55;6.63;;;4.60;96.00;;;;;;4822823;29;20498;-76
2021/01/17 04:24:29;;;;;;;9.40;5.90;;;4.50;96.00;;;;;;4832057;29;20046;-76
2021/01/17 04:26:57;;;;;;;8.30;5.55;;;4.50;96.00;;;;;;4827239;29;20077;-76
2021/01/17 04:29:24;;;;;;;8.13;5.65;;;4.60;95.90;;;;;;4829389;29;20060;-77
2021/01/17 04:31:52;;;;;;;8.32;5.63;;;4.50;95.80;;;;;;4838276;29;20049;-75
2021/01/17 04:34:22;;;;;;;9.77;5.65;;;4.50;95.80;;;;;;4830860;29;20041;-76
2021/01/17 04:36:49;;;;;;;8.23;5.22;;;4.40;96.20;;;;;;4831527;29;20042;-77
2021/01/17 04:39:18;;;;;;;7.22;5.05;;;4.30;96.70;;;;;;4830620;29;20049;-77
2021/01/17 04:41:45;;;;;;;8.77;5.93;;;4.20;96.70;;;;;;4829102;29;20042;-77
2021/01/17 04:44:20;;;;;;;7.88;5.55;;;4.20;96.70;;;;;;4830895;29;20073;-76
2021/01/17 04:46:49;;;;;;;9.88;6.25;;;4.20;96.70;;;;;;4831125;29;20038;-77
2021/01/17 04:49:19;;;;;;;9.25;5.82;;;4.30;96.70;;;;;;4827720;29;20046;-76
2021/01/17 04:51:52;;;;;;;9.77;5.50;;;4.30;96.70;;;;;;4829782;29;20038;-77
2021/01/17 04:54:20;;;;;;;9.57;5.40;;;4.30;96.70;;;;;;4828185;29;20060;-77
2021/01/17 04:56:56;;;;;;;9.60;6.18;;;4.30;96.50;;;;;;4828719;29;20046;-76
2021/01/17 04:59:27;;;;;;;8.65;5.88;;;4.30;96.70;;;;;;4832020;29;20434;-76
2021/01/17 05:02:16;;;;;;;8.35;5.43;;;4.30;96.70;;;;;;4827635;29;20049;-75
2021/01/17 05:05:01;;;;;;;8.63;5.43;;;4.30;96.70;;;;;;4838421;29;20053;-74
2021/01/17 05:07:35;;;;;;;10.80;6.47;;;4.30;96.70;;;;;;4840247;29;20500;-75
2021/01/17 05:10:07;;;;;;;9.05;6.47;;;4.40;96.70;;;;;;4835918;29;20077;-73
2021/01/17 05:12:37;;;;;;;11.38;6.70;;;4.40;96.70;;;;;;4836396;29;20049;-75
2021/01/17 05:15:06;;;;;;;11.20;6.32;;;4.30;96.70;;;;;;4842777;29;20441;-75
2021/01/17 05:17:38;;;;;;;10.75;5.65;;;4.40;96.70;;;;;;4833121;29;20078;-75
2021/01/17 05:20:08;;;;;;;8.68;6.38;;;4.50;96.70;;;;;;4833413;29;20545;-74
2021/01/17 05:22:36;;;;;;;9.05;6.07;;;4.60;96.70;;;;;;4819598;29;20505;-75
2021/01/17 05:25:07;;;;;;;9.77;6.03;;;4.50;96.70;;;;;;4817002;29;20103;-74
2021/01/17 05:27:36;;;;;;;9.07;6.13;;;4.60;96.70;;;;;;4837615;29;20178;-74
2021/01/17 05:30:04;;;;;;;8.40;5.85;;;4.60;96.70;;;;;;4845638;29;20046;-74
2021/01/17 05:32:32;;;;;;;10.07;6.25;;;4.50;96.70;;;;;;4833874;29;20120;-75
2021/01/17 05:35:01;;;;;;;10.60;6.43;;;4.50;96.70;;;;;;4832453;29;20405;-74
2021/01/17 05:37:32;;;;;;;9.00;6.00;;;4.50;96.70;;;;;;4849826;29;20038;-74
2021/01/17 05:40:00;;;;;;;8.82;5.90;;;4.40;96.70;;;;;;4822345;29;20051;-76
2021/01/17 05:42:29;;;;;;;10.85;6.45;;;4.30;96.70;;;;;;4828966;29;20064;-74
2021/01/17 05:45:08;;;;;;;10.68;6.75;;;4.40;96.70;;;;;;4814478;29;20395;-74
2021/01/17 05:47:36;;;;;;;9.48;6.20;;;4.50;96.70;;;;;;4834655;29;20060;-73
2021/01/17 05:50:06;;;;;;;10.60;6.45;;;4.60;96.70;;;;;;4831141;29;20053;-74
2021/01/17 05:52:34;;;;;;;9.88;6.15;;;4.60;96.70;;;;;;4831000;29;20069;-74
2021/01/17 05:55:02;;;;;;;7.72;5.78;;;4.60;96.70;;;;;;4829203;29;20046;-74
2021/01/17 05:57:32;;;;;;;9.52;6.35;;;4.70;96.70;;;;;;4830980;29;20413;-74
2021/01/17 06:00:00;;;;;;;9.38;6.13;;;4.70;96.70;;;;;;4833591;29;20048;-74
2021/01/17 06:02:28;;;;;;;9.93;6.03;;;4.70;96.70;;;;;;4846509;29;20041;-73
2021/01/17 06:04:57;;;;;;;9.48;5.82;;;4.60;96.70;;;;;;4829897;29;20038;-74
2021/01/17 06:07:26;;;;;;;9.63;6.45;;;4.60;96.70;;;;;;4831375;29;20038;-74
2021/01/17 06:09:58;;;;;;;10.88;6.70;;;4.60;96.70;;;;;;4846601;29;20050;-73
2021/01/17 06:12:35;;;;;;;10.43;6.28;;;4.60;96.70;;;;;;4832022;29;20094;-74
2021/01/17 06:15:06;;;;;;;9.30;6.32;;;4.70;96.70;;;;;;4831152;29;20049;-76
2021/01/17 06:17:34;;;;;;;11.63;6.95;;;4.70;96.70;;;;;;4832759;29;20509;-76
2021/01/17 06:20:05;;;;;;;9.15;6.32;;;4.70;96.70;;;;;;4831918;29;20048;-76
2021/01/17 06:22:33;;;;;;;10.93;6.93;;;4.80;96.70;;;;;;4832831;29;20597;-76
2021/01/17 06:25:02;;;;;;;12.98;6.50;;;4.90;96.70;;;;;;4830564;29;20512;-77
2021/01/17 06:27:30;;;;;;;10.10;6.38;;;4.70;96.70;;;;;;4833394;29;20053;-76
2021/01/17 06:29:58;;;;;;;10.30;6.78;;;4.80;96.70;;;;;;4830445;29;20045;-76
2021/01/17 06:32:29;;;;;;;7.70;5.65;;;4.80;96.70;;;;;;4833540;29;20536;-76
2021/01/17 06:34:58;;;;;;;9.35;6.78;;;4.80;96.70;;;;;;4827431;29;20061;-76
2021/01/17 06:37:28;;;;;;;10.88;7.20;;;4.80;96.70;;;;;;4831425;29;20140;-76
2021/01/17 06:39:58;;;;;;;9.95;6.25;;;4.90;96.70;;;;;;4830735;29;20072;-76
2021/01/17 06:42:26;;;;;;;10.05;6.50;;;4.90;96.70;;;;;;4828871;29;20054;-76
2021/01/17 06:44:53;;;;;;;10.43;6.82;;;4.90;96.70;;;;;;4833737;29;20136;-74
2021/01/17 06:47:22;;;;;;;10.07;7.13;;;4.80;96.70;;;;;;4832592;29;20054;-74
2021/01/17 06:49:52;;;;;;;9.85;6.75;;;4.80;96.70;;;;;;4831116;29;20041;-73
2021/01/17 06:52:19;;;;;;;8.82;6.75;;;4.80;96.70;;;;;;4832921;29;20074;-73
2021/01/17 06:54:48;;;;;;;13.38;7.75;;;4.70;96.70;;;;;;4832853;29;20129;-74
2021/01/17 06:57:16;;;;;;;9.85;7.20;;;4.70;96.70;;;;;;4828798;29;20129;-74
2021/01/17 06:59:45;;;;;;;9.93;6.57;;;4.70;96.70;;;;;;4846365;29;20046;-74
2021/01/17 07:02:35;;;;;;;11.32;7.07;;;4.70;96.70;;;;;;4830766;29;20509;-73
2021/01/17 07:05:32;;;;;;;14.32;8.10;;;4.70;96.70;;;;;;4841435;29;20523;-74
2021/01/17 07:08:04;;;;;;;12.95;6.88;;;4.70;96.70;;;;;;4834657;29;20092;-74
2021/01/17 07:10:39;;;;;;;11.25;6.85;;;4.70;96.70;;;;;;4835435;29;20057;-74
2021/01/17 07:13:08;;;;;;;8.20;6.45;;;4.70;96.70;;;;;;4828718;29;20050;-74
2021/01/17 07:15:38;;;;;;;10.10;7.18;;;4.70;96.70;;;;;;4832734;29;20081;-76
2021/01/17 07:18:08;;;;;;;10.77;6.93;;;4.70;96.70;;;;;;4836185;29;20137;-76
2021/01/17 07:20:38;;;;;;;11.27;6.95;;;4.70;96.70;;;;;;4830015;29;20046;-76
2021/01/17 07:23:07;;;;;;;9.30;6.88;;;4.70;96.70;;;;;;4830850;29;20057;-75
2021/01/17 07:25:36;;;;;;;13.95;7.70;;;4.70;96.70;;;;;;4831935;29;20049;-76
2021/01/17 07:28:07;;;;;;;11.40;7.28;;;4.70;96.70;;;;;;4834887;29;20524;-76
2021/01/17 07:30:47;;;;;;;9.55;7.10;;;4.60;96.70;;;;;;4828616;29;20042;-76
2021/01/17 07:33:22;;;;;;;11.43;6.82;;;4.60;96.70;;;;;;4832559;29;20563;-76
2021/01/17 07:35:50;;;;;;;11.25;7.22;;;4.60;96.70;;;;;;4830284;29;20046;-76
2021/01/17 07:38:19;;;;;;;11.13;7.63;;;4.60;96.70;;;;;;4830349;29;20094;-76
2021/01/17 07:40:53;;;;;;;11.85;7.35;;;4.60;96.70;;;;;;4831349;29;20046;-76
2021/01/17 07:43:23;;;;;;;9.52;6.57;;;4.70;96.70;;;;;;4844721;29;20097;-76
2021/01/17 07:45:51;;;;;;;12.82;7.90;;;4.70;96.70;;;;;;4827758;29;20053;-76
2021/01/17 07:48:20;;;;;;;11.57;7.18;;;4.70;96.70;;;;;;4837243;29;20438;-76
2021/01/17 07:50:49;;;;;;;10.27;7.07;;;4.70;96.70;;;;;;4833877;29;20508;-76
2021/01/17 07:53:39;;;;;;;8.98;6.70;;;4.70;96.70;;;;;;4849424;29;20517;-76
2021/01/17 07:56:09;;;;;;;10.77;7.07;;;4.70;96.70;;;;;;4839446;29;20595;-77
2021/01/17 07:58:41;;;;;;;10.43;6.88;;;4.80;96.70;;;;;;4831533;29;20076;-76
2021/01/17 08:01:39;;;;;;;10.52;6.90;;;4.80;96.70;;;;;;4815279;29;20053;-76
2021/01/17 08:04:24;;;;;;;9.73;6.45;;;4.80;96.70;;;;;;4843468;29;20045;-74
2021/01/17 08:06:54;;;;;;;11.63;6.90;;;4.90;96.70;;;;;;4832323;29;20061;-74
2021/01/17 08:09:45;;;;;;;11.55;7.28;;;4.90;96.70;;;;;;4832466;29;20053;-74
2021/01/17 08:12:28;;;;;;;10.27;6.88;;;5.00;96.70;;;;;;4831479;29;20053;-73
2021/01/17 08:15:13;;;;;;;9.88;6.03;;;5.10;96.70;;;;;;4829134;29;20066;-73
2021/01/17 08:17:40;;;;;;;9.95;6.88;;;5.20;96.70;;;;;;4833815;29;20058;-74
2021/01/17 08:20:10;;;;;;;9.02;6.15;;;5.20;96.70;;;;;;4829028;29;20093;-74
2021/01/17 08:22:43;;;;;;;8.75;6.32;;;5.20;96.70;;;;;;4830063;29;20513;-74
2021/01/17 08:25:14;;;;;;;9.35;6.03;;;5.20;96.70;;;;;;4828732;29;20128;-73
2021/01/17 08:27:43;;;;;;;9.32;5.95;;;5.20;96.70;;;;;;4817204;29;20053;-73
2021/01/17 08:30:17;;;;;;;8.73;6.10;;;5.30;96.70;;;;;;4831355;29;20529;-74
2021/01/17 08:32:48;;;;;;;9.07;6.28;;;5.30;96.50;;;;;;4827992;29;20050;-72
2021/01/17 08:35:33;;;;;;;8.70;6.65;;;5.30;96.60;;;;;;4832766;29;20045;-74
2021/01/17 08:38:18;;;;;;;9.93;6.53;;;5.30;96.70;;;;;;4832320;29;20053;-73
2021/01/17 08:40:48;;;;;;;9.52;6.35;;;5.40;96.20;;;;;;4835654;29;20076;-73
2021/01/17 08:43:17;;;;;;;11.80;6.50;;;5.40;96.00;;;;;;4832536;29;20351;-73
2021/01/17 08:45:47;;;;;;;9.68;7.13;;;5.30;95.80;;;;;;4833088;29;20049;-73
2021/01/17 08:48:23;;;;;;;11.00;7.88;;;5.30;96.70;;;;;;4831171;29;20345;-73
2021/01/17 08:50:53;;;;;;;11.20;8.20;;;5.40;96.70;;;;;;4834741;29;20121;-73
2021/01/17 08:53:29;;;;;;;11.52;7.95;;;5.40;96.70;;;;;;4817438;29;20071;-74
2021/01/17 08:56:01;;;;;;;11.43;7.45;;;5.40;96.70;;;;;;4834304;29;20368;-74
2021/01/17 08:58:44;;;;;;;11.80;7.63;;;5.40;96.70;;;;;;4830827;29;20053;-73
2021/01/17 09:01:13;;;;;;;11.80;7.40;;;5.40;96.70;;;;;;4832201;29;20557;-75
2021/01/17 09:03:57;;;;;;;10.07;7.25;;;5.40;96.70;;;;;;4833600;29;20107;-75
2021/01/17 09:06:34;;;;;;;11.38;7.40;;;5.40;96.70;;;;;;4824581;29;20064;-76
2021/01/17 09:09:13;;;;;;;9.43;6.82;;;5.50;96.70;;;;;;4856355;29;20430;-74
2021/01/17 09:11:42;;;;;;;9.95;7.18;;;5.50;96.70;;;;;;4842964;29;20153;-75
2021/01/17 09:14:15;;;;;;;14.02;8.35;;;5.50;96.70;;;;;;4834013;29;20111;-74
2021/01/17 09:16:44;;;;;;;11.73;8.32;;;5.60;96.70;;;;;;4849800;29;20052;-72
2021/01/17 09:19:12;;;;;;;11.23;8.38;;;5.70;96.70;;;;;;4830852;29;20061;-74
2021/01/17 09:21:41;;;;;;;12.75;8.90;;;5.70;96.70;;;;;;4830138;29;20077;-74
2021/01/17 09:24:12;;;;;;;13.15;8.65;;;5.80;96.70;;;;;;4834372;29;20067;-74
2021/01/17 09:26:41;;;;;;;12.82;9.38;;;5.90;96.20;;;;;;4835203;29;20060;-74
2021/01/17 09:29:08;;;;;;;18.45;10.25;;;5.90;96.00;;;;;;4830656;29;20491;-75
2021/01/17 09:31:36;;;;;;;15.15;10.13;;;5.90;96.20;;;;;;4818026;29;20140;-76
2021/01/17 09:34:05;;;;;;;17.40;10.57;;;6.00;96.50;;;;;;4835530;29;20042;-73
2021/01/17 09:36:34;;;;;;;19.52;11.73;;;6.10;96.30;;;;;;4829424;29;20406;-80
2021/01/17 09:39:03;;;;;;;12.05;7.38;;;6.30;96.40;;;;;;4833338;29;20049;-75
2021/01/17 09:41:31;;;;;;;11.38;6.50;;;6.30;95.70;;;;;;4831764;29;20072;-76
2021/01/17 09:43:59;;;;;;;10.40;6.70;;;6.30;95.60;;;;;;4845567;29;20060;-75
2021/01/17 09:46:26;;;;;;;7.70;5.22;;;6.40;95.30;;;;;;4832229;29;20049;-73
2021/01/17 09:48:55;;;;;;;6.45;4.70;;;6.30;95.80;;;;;;4833914;29;20049;-71
2021/01/17 09:51:24;;;;;;;10.00;5.50;;;6.30;96.00;;;;;;4815696;29;20050;-73
2021/01/17 09:53:54;;;;;;;7.50;4.75;;;6.10;96.50;;;;;;4834223;29;20054;-73
2021/01/17 09:56:23;;;;;;;5.95;4.13;;;6.00;96.70;;;;;;4830646;29;20112;-73
2021/01/17 09:58:50;;;;;;;5.82;3.85;;;6.00;96.70;;;;;;4832743;29;20046;-73
2021/01/17 10:01:18;;;;;;;5.88;4.45;;;5.90;96.70;;;;;;4830120;29;20102;-73
2021/01/17 10:03:48;;;;;;;7.28;5.22;;;6.00;96.70;;;;;;4831781;29;20388;-73
2021/01/17 10:06:16;;;;;;;6.90;5.03;;;6.00;96.70;;;;;;4832165;29;20077;-73
2021/01/17 10:08:44;;;;;;;11.70;5.72;;;6.10;96.70;;;;;;4830647;29;20431;-74
2021/01/17 10:11:12;;;;;;;5.97;4.40;;;6.20;96.70;;;;;;4832850;29;20054;-74
2021/01/17 10:13:47;;;;;;;6.47;4.35;;;6.10;96.70;;;;;;4841835;29;20088;-75
2021/01/17 10:16:22;;;;;;;7.07;4.07;;;6.20;96.70;;;;;;4830369;29;20520;-77
2021/01/17 10:18:50;;;;;;;7.35;4.80;;;6.20;96.70;;;;;;4830695;29;20106;-74
2021/01/17 10:21:18;;;;;;;9.20;4.50;;;6.30;96.70;;;;;;4830226;29;20486;-73
2021/01/17 10:23:51;;;;;;;7.97;5.15;;;6.30;96.70;;;;;;4829902;29;20661;-74
2021/01/17 10:26:24;;;;;;;6.03;3.90;;;6.20;96.70;;;;;;4830103;29;20042;-75
2021/01/17 10:28:52;;;;;;;7.13;4.03;;;6.20;96.70;;;;;;4829380;29;20187;-74
2021/01/17 10:31:24;;;;;;;6.32;3.95;;;6.20;96.70;;;;;;4830556;29;20042;-74
2021/01/17 10:33:56;;;;;;;6.13;3.90;;;6.30;96.70;;;;;;4826550;29;20046;-74
2021/01/17 10:36:24;;;;;;;8.00;4.10;;;6.30;96.70;;;;;;4837760;29;20042;-74
2021/01/17 10:38:53;;;;;;;6.80;4.07;;;6.40;96.70;;;;;;4835401;29;20034;-74
2021/01/17 10:41:26;;;;;;;6.30;4.13;;;6.40;96.70;;;;;;4832816;29;20053;-74
2021/01/17 10:44:07;;;;;;;4.35;3.55;;;6.60;96.70;;;;;;4828393;29;20092;-73
2021/01/17 10:46:37;;;;;;;7.15;5.45;;;6.60;96.70;;;;;;4833362;29;20053;-73
2021/01/17 10:49:10;;;;;;;6.50;3.70;;;6.60;96.70;;;;;;4834164;29;20060;-73
2021/01/17 10:51:42;;;;;;;7.80;5.25;;;6.60;96.70;;;;;;4846954;29;20434;-74
2021/01/17 10:54:20;;;;;;;6.07;4.22;;;6.70;96.70;;;;;;4830496;29;20041;-73
2021/01/17 10:56:49;;;;;;;5.90;3.90;;;6.70;96.70;;;;;;4840537;29;20069;-74
2021/01/17 10:59:22;;;;;;;6.97;3.90;;;6.60;96.70;;;;;;4833184;29;20533;-74
2021/01/17 11:01:50;;;;;;;5.22;3.80;;;6.70;96.70;;;;;;4832753;29;20062;-74
2021/01/17 11:04:17;;;;;;;5.70;3.83;;;6.80;96.70;;;;;;4828731;29;20060;-74
2021/01/17 11:06:46;;;;;;;6.38;4.13;;;6.60;96.70;;;;;;4837327;29;20054;-73
2021/01/17 11:09:15;;;;;;;5.78;3.33;;;6.70;96.70;;;;;;4830907;29;20045;-73
2021/01/17 11:11:45;;;;;;;6.90;5.28;;;6.70;96.70;;;;;;4829893;29;20046;-72
2021/01/17 11:14:12;;;;;;;7.65;4.95;;;6.60;96.70;;;;;;4829614;29;20140;-75
2021/01/17 11:16:42;;;;;;;9.65;5.20;;;6.60;96.70;;;;;;4830466;29;20120;-73
2021/01/17 11:19:11;;;;;;;7.45;4.70;;;6.80;96.70;;;;;;4829828;29;20046;-72
2021/01/17 11:21:39;;;;;;;7.43;4.65;;;6.90;96.70;;;;;;4829831;29;20046;-73
2021/01/17 11:24:08;;;;;;;7.78;5.53;;;6.90;96.70;;;;;;4846720;29;20904;-73
2021/01/17 11:26:37;;;;;;;6.28;5.15;;;6.90;96.70;;;;;;4825203;29;20588;-73
2021/01/17 11:29:06;;;;;;;10.07;5.90;;;7.00;96.70;;;;;;4833959;29;20054;-73
2021/01/17 11:31:34;;;;;;;7.65;5.45;;;7.10;96.70;;;;;;4829121;29;20041;-72
2021/01/17 11:34:13;;;;;;;9.02;5.30;;;7.10;96.70;;;;;;4830578;29;20042;-73
2021/01/17 11:36:41;;;;;;;8.13;5.82;;;7.10;96.70;;;;;;4830224;29;20137;-72
2021/01/17 11:39:08;;;;;;;8.30;5.75;;;7.10;96.70;;;;;;4830123;29;20137;-72
2021/01/17 11:41:37;;;;;;;7.63;5.00;;;7.20;96.70;;;;;;4829469;29;20466;-72
2021/01/17 11:44:08;;;;;;;6.72;5.00;;;7.10;96.70;;;;;;4846888;29;20397;-72
2021/01/17 11:46:36;;;;;;;6.75;4.88;;;7.10;96.70;;;;;;4838651;29;20326;-73
2021/01/17 11:49:05;;;;;;;10.18;5.18;;;7.10;96.70;;;;;;4824847;29;20073;-72
2021/01/17 11:51:34;;;;;;;7.40;5.28;;;7.20;96.70;;;;;;4823241;29;20367;-72
2021/01/17 11:54:09;;;;;;;7.88;5.10;;;7.20;96.70;;;;;;4828793;29;20038;-73
2021/01/17 11:56:36;;;;;;;10.02;4.90;;;7.30;96.70;;;;;;4829313;29;20483;-74
2021/01/17 11:59:05;;;;;;;7.47;4.95;;;7.40;96.70;;;;;;4831888;29;20520;-73
2021/01/17 12:01:32;;;;;;;7.78;4.85;;;7.40;96.70;;;;;;4848397;29;20063;-73
2021/01/17 12:04:01;;;;;;;9.02;4.75;;;7.40;96.70;;;;;;4830955;29;20049;-72
2021/01/17 12:06:29;;;;;;;7.45;5.13;;;7.70;96.70;;;;;;4828610;29;20057;-73
2021/01/17 12:09:00;;;;;;;8.32;5.43;;;7.80;96.70;;;;;;4830331;29;20592;-73
2021/01/17 12:11:32;;;;;;;7.22;5.63;;;8.10;96.70;;;;;;4837905;29;20045;-73
2021/01/17 12:14:01;;;;;;;6.47;4.38;;;8.50;95.80;;;;;;4839117;29;20161;-73
2021/01/17 12:16:29;;;;;;;7.93;4.95;;;8.60;94.90;;;;;;4836038;29;20053;-73
2021/01/17 12:18:58;;;;;;;9.48;5.82;;;8.50;94.90;;;;;;4832444;29;20054;-73
2021/01/17 12:21:26;;;;;;;11.18;6.05;;;8.40;94.30;;;;;;4835288;29;20102;-73
2021/01/17 12:23:56;;;;;;;9.73;5.28;;;8.20;94.70;;;;;;4835381;29;20061;-74
2021/01/17 12:26:25;;;;;;;7.70;5.03;;;8.30;95.10;;;;;;4834239;29;20488;-73
2021/01/17 12:28:53;;;;;;;8.48;4.97;;;8.70;95.40;;;;;;4845650;29;20449;-73
2021/01/17 12:31:22;;;;;;;5.97;4.82;;;9.00;94.30;;;;;;4835480;29;20480;-73
2021/01/17 12:33:50;;;;;;;7.90;5.05;;;9.00;94.30;;;;;;4833309;29;20058;-73
2021/01/17 12:36:20;;;;;;;8.52;5.15;;;8.80;94.20;;;;;;4822603;29;20048;-73
2021/01/17 12:38:48;;;;;;;9.00;6.30;;;8.80;94.40;;;;;;4831821;29;20479;-73
2021/01/17 12:41:17;;;;;;;10.50;6.93;;;8.80;94.70;;;;;;4834767;29;20445;-73
2021/01/17 12:43:46;;;;;;;11.13;7.68;;;9.00;94.40;;;;;;4832272;29;20045;-73
2021/01/17 12:46:15;;;;;;;10.75;6.78;;;9.00;94.20;;;;;;4834895;29;20121;-73
2021/01/17 12:48:43;;;;;;;9.00;6.53;;;9.00;94.60;;;;;;4834263;29;20042;-73
2021/01/17 12:51:11;;;;;;;8.50;5.78;;;9.00;94.30;;;;;;4832746;29;20050;-73
2021/01/17 12:53:40;;;;;;;8.60;5.90;;;8.90;94.60;;;;;;4831058;29;20687;-73
2021/01/17 12:56:08;;;;;;;8.50;6.35;;;9.00;94.20;;;;;;4831867;29;20083;-73
2021/01/17 12:58:36;;;;;;;10.38;6.68;;;9.00;95.10;;;;;;4835282;29;20038;-73
2021/01/17 13:01:10;;;;;;;9.85;5.53;;;8.90;95.20;;;;;;4836884;29;20122;-73
2021/01/17 13:03:38;;;;;;;7.13;5.43;;;8.70;94.90;;;;;;4831749;29;20052;-73
2021/01/17 13:06:06;;;;;;;8.70;5.90;;;8.60;94.20;;;;;;4833989;29;20054;-73